PWSweather.com
Personal Weather Stations
Station Observations
GEELONGWX1
Bell Post Hill, GeelongAU

Bell Post HillGeelongAU

Lat: -38.101, Lon: 144.326

Elevation: 204

Station Type: Davis Vantage Pro2

http://www.geelongweather.com

Latest ConditionsUpdated 5:50:00 AM GMT+10:10 Monday, Aug 31, 2015
Currently Today's Max Today's Min Today's Average
Temperature 43.2°F6.2°C 43.8°F6.6°C 43.0°F6.1°C 43.4°F6.3°C
Dew Point 40.8°F4.9°C 41.2°F5.1°C 39.0°F3.9°C 40.6°F4.8°C
Winds Calm Calm 5.8 mph S9.3 kmh S - 0.9 mph 1.4 kmh
Wind Gusts -- 9.2 mph14.8 kmh - -
Humidity 91% 92% 84% 90%
Pressure 30.24 in1024.0 mb 30.29 in1025.7 mb 30.24 in1024.0 mb -
Precipitation - 0.01 in0.3 mm - -
Hour Temp Dew Point Humidity Winds Wind Gusts Pressure Precip Precip Rate Daily Precip Total
05:50 AM 43.2°F6.2°C 40.8°F4.9°C 91% Calm Calm -- 30.24 in1024.0 mb - 0.00 in0.0 mm 0.01 in0.3 mm
05:40 AM 43.3°F6.3°C 40.8°F4.9°C 91% Calm Calm -- 30.24 in1024.0 mb - 0.00 in0.0 mm 0.01 in0.3 mm
05:30 AM 43.4°F6.3°C 41.2°F5.1°C 92% Calm Calm -- 30.24 in1024.0 mb - 0.00 in0.0 mm 0.01 in0.3 mm
05:20 AM 43.3°F6.3°C 41.1°F5.1°C 92% Calm Calm -- 30.24 in1024.0 mb - 0.00 in0.0 mm 0.01 in0.3 mm
05:10 AM 43.3°F6.3°C 41.1°F5.1°C 92% Calm Calm -- 30.24 in1024.0 mb - 0.00 in0.0 mm 0.01 in0.3 mm
05:00 AM 43.1°F6.2°C 40.9°F4.9°C 92% Calm Calm -- 30.24 in1024.0 mb - 0.00 in0.0 mm 0.01 in0.3 mm
04:50 AM 43.0°F6.1°C 40.6°F4.8°C 91% Calm Calm -- 30.24 in1024.0 mb - 0.00 in0.0 mm 0.01 in0.3 mm
04:40 AM 43.0°F6.1°C 40.6°F4.8°C 91% Calm Calm -- 30.24 in1024.0 mb - 0.00 in0.0 mm 0.01 in0.3 mm
04:30 AM 43.0°F6.1°C 40.6°F4.8°C 91% Calm Calm -- 30.24 in1024.0 mb - 0.00 in0.0 mm 0.01 in0.3 mm
04:20 AM 43.1°F6.2°C 40.7°F4.8°C 91% Calm Calm -- 30.24 in1024.0 mb - 0.00 in0.0 mm 0.01 in0.3 mm
04:10 AM 43.3°F6.3°C 40.8°F4.9°C 91% 5.8 mph S9.3 kmh S 9.2 mph14.8 kmh 30.24 in1024.0 mb - 0.00 in0.0 mm 0.01 in0.3 mm
04:00 AM 43.5°F6.4°C 41.0°F5.0°C 91% 2.3 mph S3.7 kmh S 5.8 mph9.3 kmh 30.24 in1024.0 mb - 0.00 in0.0 mm 0.01 in0.3 mm
03:50 AM 43.6°F6.4°C 41.1°F5.1°C 91% 4.6 mph S7.4 kmh S 5.8 mph9.3 kmh 30.24 in1024.0 mb - 0.00 in0.0 mm 0.01 in0.3 mm
03:40 AM 43.6°F6.4°C 41.1°F5.1°C 91% 3.5 mph S5.6 kmh S 5.8 mph9.3 kmh 30.24 in1024.0 mb - 0.00 in0.0 mm 0.01 in0.3 mm
03:30 AM 43.6°F6.4°C 41.1°F5.1°C 91% 2.3 mph SSW3.7 kmh SSW 3.5 mph5.6 kmh 30.24 in1024.0 mb - 0.00 in0.0 mm 0.01 in0.3 mm
03:20 AM 43.5°F6.4°C 41.0°F5.0°C 91% 1.1 mph S1.8 kmh S 8.1 mph13.0 kmh 30.25 in1024.4 mb - 0.00 in0.0 mm 0.01 in0.3 mm
03:10 AM 43.4°F6.3°C 40.9°F4.9°C 91% Calm Calm 6.9 mph11.1 kmh 30.25 in1024.4 mb - 0.00 in0.0 mm 0.01 in0.3 mm
03:00 AM 43.3°F6.3°C 40.6°F4.8°C 90% 3.5 mph S5.6 kmh S 4.6 mph7.4 kmh 30.25 in1024.4 mb - 0.00 in0.0 mm 0.01 in0.3 mm
02:50 AM 43.4°F6.3°C 40.9°F4.9°C 91% 4.6 mph S7.4 kmh S 4.6 mph7.4 kmh 30.25 in1024.4 mb - 0.00 in0.0 mm 0.01 in0.3 mm
02:40 AM 43.4°F6.3°C 40.7°F4.8°C 90% Calm Calm -- 30.25 in1024.4 mb - 0.00 in0.0 mm 0.01 in0.3 mm
02:30 AM 43.6°F6.4°C 40.9°F4.9°C 90% Calm Calm -- 30.25 in1024.4 mb - 0.00 in0.0 mm 0.01 in0.3 mm
02:20 AM 43.7°F6.5°C 41.0°F5.0°C 90% Calm Calm -- 30.26 in1024.7 mb - 0.00 in0.0 mm 0.01 in0.3 mm
02:10 AM 43.8°F6.6°C 41.1°F5.1°C 90% Calm Calm -- 30.27 in1025.1 mb - 0.01 in0.3 mm 0.01 in0.3 mm
02:00 AM 43.8°F6.6°C 41.1°F5.1°C 90% Calm Calm -- 30.27 in1025.1 mb - 0.00 in0.0 mm 0.00 in0.0 mm
01:50 AM 43.7°F6.5°C 40.7°F4.8°C 89% Calm Calm -- 30.27 in1025.1 mb - 0.00 in0.0 mm 0.00 in0.0 mm
01:40 AM 43.6°F6.4°C 40.6°F4.8°C 89% Calm Calm -- 30.27 in1025.1 mb - 0.00 in0.0 mm 0.00 in0.0 mm
01:30 AM 43.7°F6.5°C 40.4°F4.7°C 88% Calm Calm -- 30.27 in1025.1 mb - 0.00 in0.0 mm 0.00 in0.0 mm
01:20 AM 43.8°F6.6°C 40.8°F4.9°C 89% Calm Calm 3.5 mph5.6 kmh 30.28 in1025.4 mb - 0.00 in0.0 mm 0.00 in0.0 mm
01:10 AM 43.8°F6.6°C 40.8°F4.9°C 89% Calm Calm -- 30.28 in1025.4 mb - 0.00 in0.0 mm 0.00 in0.0 mm
01:00 AM 43.6°F6.4°C 40.6°F4.8°C 89% Calm Calm -- 30.28 in1025.4 mb - 0.00 in0.0 mm 0.00 in0.0 mm
12:50 AM 43.4°F6.3°C 40.1°F4.5°C 88% Calm Calm -- 30.28 in1025.4 mb - 0.00 in0.0 mm 0.00 in0.0 mm
12:40 AM 43.3°F6.3°C 39.7°F4.3°C 87% Calm Calm -- 30.28 in1025.4 mb - 0.00 in0.0 mm 0.00 in0.0 mm
12:30 AM 43.4°F6.3°C 39.2°F4.0°C 85% 3.5 mph SSW5.6 kmh SSW 5.8 mph9.3 kmh 30.29 in1025.7 mb - 0.00 in0.0 mm 0.00 in0.0 mm
12:20 AM 43.4°F6.3°C 39.2°F4.0°C 85% 2.3 mph S3.7 kmh S 4.6 mph7.4 kmh 30.29 in1025.7 mb - 0.00 in0.0 mm 0.00 in0.0 mm
12:10 AM 43.5°F6.4°C 39.0°F3.9°C 84% Calm Calm -- 30.29 in1025.7 mb - 0.00 in0.0 mm 0.00 in0.0 mm
12:00 AM 43.7°F6.5°C 39.2°F4.0°C 84% Calm Calm -- 30.29 in1025.7 mb - 0.00 in0.0 mm 0.00 in0.0 mm